Tk Rotterdam — A8RG8 — position and weather

sailwx.info

Track history (hours):
 
Tides and Currents Weather Stations Pressure Air Temp Water Temp Dewpoint Dewpoint Depression Visibility Wind Speed Wind Dir Waves Ship Positions

Tk Rotterdam

Last reported at 2014-Aug-26 22:24 UTC. Time now 2014-Aug-27 09:11 UTC.
Position N 41°06' E 001°17'.

Length 130 m; draft 5 m.

Type: Cargo ship. MMSI: 636014098.

Date/timePositionNaut miles runAvg speedWind from/ knotsBaromVisibWave heightAir tempDewpointWater temp
2014-Aug-26 22:24N 41°06' E 001°17'0 0.0
2014-Aug-26 21:18N 41°06' E 001°17'0 0.1
2014-Aug-26 19:32N 41°06' E 001°17'0 0.1
2014-Aug-26 18:33N 41°06' E 001°17'3 2.7
2014-Aug-26 17:33N 41°06' E 001°14'0 0.0
2014-Aug-26 14:27N 41°06' E 001°14'0 0.0
2014-Aug-26 12:07N 41°06' E 001°14'0 0.0
2014-Aug-26 07:28N 41°06' E 001°14'0 0.0
2014-Aug-26 01:06N 41°06' E 001°14'0 0.0
2014-Aug-26 00:30N 41°06' E 001°14'0 0.0
2014-Aug-25 21:23N 41°06' E 001°14'0 0.0
2014-Aug-25 20:15N 41°06' E 001°14'0 0.0
2014-Aug-25 17:20N 41°06' E 001°14'0 0.0
2014-Aug-25 16:31N 41°06' E 001°14'0 0.0
2014-Aug-23 19:22N 41°06' E 001°14'86 5.4
2014-Aug-23 03:32N 40°19' E 002°49'1211.8
2014-Aug-23 02:32N 40°12' E 003°02'2512.0
2014-Aug-23 00:29N 39°59' E 003°29'1211.7
2014-Aug-22 23:26N 39°52' E 003°43'35612.3
2014-Aug-21 18:21N 37°35' E 010°44'1012.5
2014-Aug-21 17:33N 37°32' E 010°56'8712.3
2014-Aug-21 10:28N 37°06' E 012°40'1112.5
2014-Aug-21 09:33N 37°03' E 012°54'1312.6
2014-Aug-21 08:33N 36°59' E 013°09'1212.5
2014-Aug-21 07:33N 36°55' E 013°24'1312.6
2014-Aug-21 06:33N 36°52' E 013°39'1312.5
2014-Aug-21 05:33N 36°49' E 013°54'1212.4
2014-Aug-21 04:33N 36°45' E 014°09'1212.2
2014-Aug-21 03:33N 36°42' E 014°24'1212.0
2014-Aug-21 02:32N 36°39' E 014°38'1212.2
2014-Aug-21 01:33N 36°35' E 014°53'1211.7
2014-Aug-21 00:33N 36°33' E 015°07'1211.7
2014-Aug-20 23:33N 36°33' E 015°22'  
2014-Aug-18 03:33N 40°58' E 028°55'1 0.4
2014-Aug-18 01:31N 40°58' E 028°56'  
Track history (hours):
 
Tides and Currents Weather Stations Pressure Air Temp Water Temp Dewpoint Dewpoint Depression Visibility Wind Speed Wind Dir Waves Ship Positions

Tk Rotterdam

Last reported at 2014-Aug-26 22:24 UTC. Time now 2014-Aug-27 09:11 UTC.
Position N 41°06' E 001°17'.

Length 130 m; draft 5 m.

Type: Cargo ship. MMSI: 636014098.

Date/timePositionNaut miles runAvg speedWind from/ knotsBaromVisibWave heightAir tempDewpointWater temp
2014-Aug-26 22:24N 41°06' E 001°17'0 0.0
2014-Aug-26 21:18N 41°06' E 001°17'0 0.1
2014-Aug-26 19:32N 41°06' E 001°17'0 0.1
2014-Aug-26 18:33N 41°06' E 001°17'3 2.7
2014-Aug-26 17:33N 41°06' E 001°14'0 0.0
2014-Aug-26 14:27N 41°06' E 001°14'0 0.0
2014-Aug-26 12:07N 41°06' E 001°14'0 0.0
2014-Aug-26 07:28N 41°06' E 001°14'0 0.0
2014-Aug-26 01:06N 41°06' E 001°14'0 0.0
2014-Aug-26 00:30N 41°06' E 001°14'0 0.0
2014-Aug-25 21:23N 41°06' E 001°14'0 0.0
2014-Aug-25 20:15N 41°06' E 001°14'0 0.0
2014-Aug-25 17:20N 41°06' E 001°14'0 0.0
2014-Aug-25 16:31N 41°06' E 001°14'0 0.0
2014-Aug-23 19:22N 41°06' E 001°14'86 5.4
2014-Aug-23 03:32N 40°19' E 002°49'1211.8
2014-Aug-23 02:32N 40°12' E 003°02'2512.0
2014-Aug-23 00:29N 39°59' E 003°29'1211.7
2014-Aug-22 23:26N 39°52' E 003°43'35612.3
2014-Aug-21 18:21N 37°35' E 010°44'1012.5
2014-Aug-21 17:33N 37°32' E 010°56'8712.3
2014-Aug-21 10:28N 37°06' E 012°40'1112.5
2014-Aug-21 09:33N 37°03' E 012°54'1312.6
2014-Aug-21 08:33N 36°59' E 013°09'1212.5
2014-Aug-21 07:33N 36°55' E 013°24'1312.6
2014-Aug-21 06:33N 36°52' E 013°39'1312.5
2014-Aug-21 05:33N 36°49' E 013°54'1212.4
2014-Aug-21 04:33N 36°45' E 014°09'1212.2
2014-Aug-21 03:33N 36°42' E 014°24'1212.0
2014-Aug-21 02:32N 36°39' E 014°38'1212.2
2014-Aug-21 01:33N 36°35' E 014°53'1211.7
2014-Aug-21 00:33N 36°33' E 015°07'1211.7
2014-Aug-20 23:33N 36°33' E 015°22'  
2014-Aug-18 03:33N 40°58' E 028°55'1 0.4
2014-Aug-18 01:31N 40°58' E 028°56'  

Dump ship's entire track history